Time;durP1;ratioP1;P1;durP2;ratioP2;P2;SDS_P1;SDS_P2;PMS_P1;PMS_P2;Temp;Humidity;BMP_temperature;BMP_pressure;BME280_temperature;BME280_humidity;BME280_pressure;Samples;Min_cycle;Max_cycle;Signal;HPM_P1;HPM_P2
2022/06/28 00:01:54;;;;;;;2.50;2.00;;;18.00;99.90;;;;;;4992571;28;20295;-62
2022/06/28 00:04:20;;;;;;;2.10;2.00;;;18.00;99.90;;;;;;4992049;28;20266;-63
2022/06/28 00:06:47;;;;;;;2.75;2.08;;;18.00;99.90;;;;;;4993696;28;20739;-62
2022/06/28 00:09:14;;;;;;;2.20;2.08;;;18.00;99.90;;;;;;4985111;28;20203;-62
2022/06/28 00:11:41;;;;;;;2.20;2.10;;;18.00;99.90;;;;;;4992157;28;20211;-62
2022/06/28 00:16:04;;;;;;;2.15;2.05;;;18.00;99.90;;;;;;4994149;28;20190;-62
2022/06/28 00:16:52;;;;;;;2.60;2.40;;;18.00;99.90;;;;;;4983681;28;20215;-62
2022/06/28 00:19:18;;;;;;;1.80;1.70;;;18.20;99.90;;;;;;4980338;28;20238;-62
2022/06/28 00:21:43;;;;;;;1.70;1.60;;;18.00;99.90;;;;;;4989463;28;20637;-62
2022/06/28 00:24:09;;;;;;;1.80;1.70;;;18.00;99.90;;;;;;4989786;28;20187;-62
2022/06/28 00:26:35;;;;;;;2.20;2.10;;;18.00;99.90;;;;;;4993679;28;20218;-62
2022/06/28 00:29:01;;;;;;;1.90;1.80;;;18.00;99.90;;;;;;4982546;28;20180;-62
2022/06/28 00:31:26;;;;;;;2.60;2.20;;;18.00;99.90;;;;;;4983597;28;21182;-62
2022/06/28 00:33:52;;;;;;;1.90;1.80;;;18.00;99.90;;;;;;4991799;28;20190;-62
2022/06/28 00:36:17;;;;;;;2.00;1.90;;;17.90;99.90;;;;;;4993306;28;20616;-62
2022/06/28 00:38:43;;;;;;;2.03;1.83;;;18.00;99.90;;;;;;4989382;28;20192;-62
2022/06/28 00:41:09;;;;;;;2.03;1.80;;;17.90;99.90;;;;;;4986665;28;20223;-62
2022/06/28 00:43:35;;;;;;;1.80;1.70;;;18.10;99.90;;;;;;4993383;28;20192;-62
2022/06/28 00:46:02;;;;;;;1.85;1.75;;;18.00;99.90;;;;;;4993264;28;20218;-62
2022/06/28 00:48:28;;;;;;;1.77;1.67;;;18.00;99.90;;;;;;4980871;28;20661;-62
2022/06/28 00:50:54;;;;;;;1.95;1.83;;;18.10;99.90;;;;;;4991871;28;20207;-62
2022/06/28 00:53:21;;;;;;;1.70;1.60;;;18.10;99.90;;;;;;4993240;28;20199;-62
2022/06/28 00:55:47;;;;;;;2.17;1.95;;;18.10;99.90;;;;;;4990372;28;20198;-61
2022/06/28 00:58:14;;;;;;;3.67;1.65;;;18.20;99.90;;;;;;4984259;28;20669;-62
2022/06/28 01:00:45;;;;;;;1.70;1.60;;;18.10;99.90;;;;;;4982450;28;20211;-62
2022/06/28 01:03:14;;;;;;;2.08;1.85;;;18.10;99.90;;;;;;4991759;28;20192;-62
2022/06/28 01:05:41;;;;;;;2.40;1.58;;;18.10;99.90;;;;;;4992883;28;20217;-62
2022/06/28 01:08:07;;;;;;;3.40;3.10;;;18.10;99.90;;;;;;4990434;28;20567;-62
2022/06/28 01:10:35;;;;;;;2.10;1.90;;;18.10;99.90;;;;;;4993263;28;20295;-62
2022/06/28 01:13:01;;;;;;;1.85;1.75;;;18.00;99.90;;;;;;4992999;28;20212;-62
2022/06/28 01:15:27;;;;;;;2.13;1.98;;;18.20;99.90;;;;;;4992846;28;20180;-61
2022/06/28 01:17:53;;;;;;;2.50;2.30;;;18.10;99.90;;;;;;4979535;28;20216;-63
2022/06/28 01:20:23;;;;;;;2.40;1.80;;;18.00;99.90;;;;;;4983620;28;20743;-62
2022/06/28 01:22:48;;;;;;;2.10;1.90;;;17.90;99.90;;;;;;4992869;28;20183;-62
2022/06/28 01:25:14;;;;;;;1.93;1.70;;;18.10;99.90;;;;;;4990081;28;20666;-62
2022/06/28 01:27:40;;;;;;;1.90;1.80;;;18.10;99.90;;;;;;4981967;28;20201;-62
2022/06/28 01:30:07;;;;;;;1.65;1.55;;;18.10;99.90;;;;;;4991182;28;20685;-62
2022/06/28 01:32:34;;;;;;;1.85;1.75;;;18.20;99.90;;;;;;4991615;28;20201;-62
2022/06/28 01:35:01;;;;;;;2.00;1.80;;;18.20;99.90;;;;;;4991985;28;20242;-62
2022/06/28 01:37:27;;;;;;;2.05;1.77;;;18.10;99.90;;;;;;4997790;28;20179;-62
2022/06/28 01:39:53;;;;;;;2.63;2.10;;;18.40;99.90;;;;;;4990805;28;20195;-62
2022/06/28 01:42:19;;;;;;;3.28;2.10;;;18.00;99.90;;;;;;4983759;28;20191;-62
2022/06/28 01:44:46;;;;;;;2.20;2.00;;;17.90;99.90;;;;;;4992202;28;20266;-62
2022/06/28 01:47:12;;;;;;;3.25;1.92;;;17.80;99.90;;;;;;4981029;28;20442;-62
2022/06/28 01:49:39;;;;;;;1.90;1.80;;;17.70;99.90;;;;;;4984415;28;20279;-62
2022/06/28 01:52:05;;;;;;;3.08;2.05;;;17.70;99.90;;;;;;4992170;28;20207;-62
2022/06/28 01:54:31;;;;;;;2.13;2.00;;;17.70;99.90;;;;;;4992408;28;20188;-62
2022/06/28 01:56:57;;;;;;;2.27;2.07;;;17.60;99.90;;;;;;4988962;28;20195;-62
2022/06/28 01:59:23;;;;;;;2.50;1.57;;;17.60;99.90;;;;;;4975794;28;20450;-62
2022/06/28 02:01:50;;;;;;;1.70;1.60;;;17.60;99.90;;;;;;4978610;28;20465;-61
2022/06/28 02:04:24;;;;;;;2.65;1.90;;;17.50;99.90;;;;;;4990873;28;20203;-62
2022/06/28 02:06:50;;;;;;;2.17;1.98;;;17.60;99.90;;;;;;4979327;28;20239;-62
2022/06/28 02:09:16;;;;;;;1.50;1.40;;;17.50;99.90;;;;;;4987947;28;20230;-62
2022/06/28 02:11:42;;;;;;;2.23;2.00;;;17.60;99.90;;;;;;4990631;28;20545;-62
2022/06/28 02:14:08;;;;;;;1.90;1.80;;;17.70;99.90;;;;;;4991604;28;20950;-62
2022/06/28 02:16:33;;;;;;;2.20;2.00;;;17.40;99.90;;;;;;4978255;28;20261;-62
2022/06/28 02:18:59;;;;;;;2.23;1.90;;;17.40;99.90;;;;;;4971894;28;20197;-62
2022/06/28 02:21:25;;;;;;;2.27;2.07;;;17.40;99.90;;;;;;4991028;28;20214;-62
2022/06/28 02:23:51;;;;;;;2.28;1.73;;;17.50;99.90;;;;;;4983091;28;20184;-62
2022/06/28 02:26:16;;;;;;;2.77;2.20;;;17.40;99.90;;;;;;4991223;28;20261;-62
2022/06/28 02:28:43;;;;;;;3.30;2.63;;;17.50;99.90;;;;;;4978727;28;20443;-62
2022/06/28 02:31:10;;;;;;;2.67;2.45;;;17.30;99.90;;;;;;4989881;28;20242;-62
2022/06/28 02:33:35;;;;;;;2.50;2.30;;;17.20;99.90;;;;;;4978212;28;20203;-62
2022/06/28 02:41:29;;;;;;;1.90;1.80;;;17.10;99.90;;;;;;4990601;28;20261;-62
2022/06/28 02:43:56;;;;;;;2.20;2.07;;;17.00;99.90;;;;;;4991436;28;20649;-61
2022/06/28 02:46:21;;;;;;;2.10;2.00;;;17.00;99.90;;;;;;4985469;28;20243;-62
2022/06/28 02:48:47;;;;;;;2.20;2.10;;;17.00;99.90;;;;;;4983552;28;20188;-61
2022/06/28 02:51:13;;;;;;;2.40;2.20;;;17.10;99.90;;;;;;4991407;28;20210;-61
2022/06/28 02:53:38;;;;;;;3.20;2.20;;;16.90;99.90;;;;;;4979381;28;20197;-62
2022/06/28 02:56:05;;;;;;;3.90;2.30;;;17.00;99.90;;;;;;4991086;28;20435;-61
2022/06/28 02:58:31;;;;;;;2.33;2.15;;;16.60;99.90;;;;;;4981934;28;20196;-61
2022/06/28 03:00:57;;;;;;;3.00;2.33;;;16.70;99.90;;;;;;4982866;28;20215;-61
2022/06/28 03:03:23;;;;;;;2.92;2.45;;;16.90;99.90;;;;;;4989361;28;20911;-62
2022/06/28 03:05:48;;;;;;;3.00;2.80;;;16.80;99.90;;;;;;4988296;28;20211;-62
2022/06/28 03:08:14;;;;;;;2.70;2.50;;;16.80;99.90;;;;;;4986659;28;20559;-62
2022/06/28 03:10:40;;;;;;;1.97;1.87;;;16.60;99.90;;;;;;4989869;28;20775;-62
2022/06/28 03:13:05;;;;;;;2.30;2.20;;;16.70;99.90;;;;;;4987498;28;20194;-62
2022/06/28 03:15:31;;;;;;;3.87;2.80;;;16.70;99.90;;;;;;4985878;28;20450;-62
2022/06/28 03:17:57;;;;;;;2.73;2.53;;;16.70;99.90;;;;;;4983361;28;20216;-62
2022/06/28 03:20:23;;;;;;;2.53;2.33;;;16.70;99.90;;;;;;4984621;28;20208;-62
2022/06/28 03:22:48;;;;;;;2.30;2.10;;;16.70;99.90;;;;;;4988392;28;20190;-62
2022/06/28 03:25:14;;;;;;;2.20;2.03;;;16.40;99.90;;;;;;4982803;28;20238;-62
2022/06/28 03:27:40;;;;;;;2.20;2.00;;;16.80;99.90;;;;;;4986861;28;21138;-62
2022/06/28 03:30:07;;;;;;;2.37;2.20;;;16.60;99.90;;;;;;4982304;28;20238;-62
2022/06/28 03:32:33;;;;;;;4.55;2.95;;;16.50;99.90;;;;;;4993448;28;20190;-62
2022/06/28 03:34:59;;;;;;;2.20;2.10;;;16.90;99.90;;;;;;4983365;28;20191;-62
2022/06/28 03:37:25;;;;;;;3.23;2.93;;;16.60;99.90;;;;;;4992847;28;20187;-61
2022/06/28 03:39:50;;;;;;;2.50;2.30;;;16.60;99.90;;;;;;4979222;28;20638;-62
2022/06/28 03:42:16;;;;;;;2.30;2.20;;;16.60;99.90;;;;;;4992593;28;20466;-62
2022/06/28 03:44:42;;;;;;;2.53;2.43;;;16.60;99.90;;;;;;4987212;28;20187;-62
2022/06/28 03:47:08;;;;;;;2.40;2.20;;;16.70;99.90;;;;;;4993707;28;20184;-62
2022/06/28 03:49:33;;;;;;;2.90;2.20;;;16.70;99.90;;;;;;4984006;28;20546;-62
2022/06/28 03:51:59;;;;;;;2.80;2.60;;;16.70;99.90;;;;;;4991601;28;20230;-62
2022/06/28 03:54:26;;;;;;;3.00;2.53;;;16.70;99.90;;;;;;4981098;28;20207;-62
2022/06/28 03:56:51;;;;;;;1.92;1.83;;;16.60;99.90;;;;;;4990805;28;20432;-62
2022/06/28 03:59:17;;;;;;;2.23;2.13;;;16.70;99.90;;;;;;4974075;28;20188;-62
2022/06/28 04:01:43;;;;;;;3.70;2.23;;;16.90;99.90;;;;;;4992820;28;20295;-62
2022/06/28 04:04:08;;;;;;;2.90;2.70;;;16.60;99.90;;;;;;4991966;28;20573;-62
2022/06/28 04:06:34;;;;;;;2.37;2.17;;;16.50;99.90;;;;;;4994143;28;20211;-61
2022/06/28 04:09:00;;;;;;;2.93;2.63;;;16.90;99.90;;;;;;4985192;28;20725;-62
2022/06/28 04:11:25;;;;;;;2.87;2.67;;;16.70;99.90;;;;;;4992509;28;20203;-62
2022/06/28 04:13:53;;;;;;;3.17;2.80;;;16.70;99.90;;;;;;4991571;28;20184;-61
2022/06/28 04:16:21;;;;;;;2.67;2.50;;;16.90;99.90;;;;;;4988649;28;20872;-62
2022/06/28 04:18:47;;;;;;;3.65;2.60;;;16.90;99.90;;;;;;4980996;28;20188;-61
2022/06/28 04:21:15;;;;;;;3.95;3.40;;;16.90;99.90;;;;;;4990521;28;20215;-62
2022/06/28 04:23:41;;;;;;;3.00;2.80;;;16.70;99.90;;;;;;4988707;28;20267;-62
2022/06/28 04:26:08;;;;;;;4.13;2.30;;;16.70;99.90;;;;;;4992827;28;20238;-62
2022/06/28 04:28:34;;;;;;;2.10;2.00;;;17.00;99.90;;;;;;4983911;28;20192;-62
2022/06/28 04:31:00;;;;;;;2.90;2.70;;;17.20;99.90;;;;;;4991215;28;20211;-62
2022/06/28 04:33:26;;;;;;;2.72;2.45;;;17.30;99.90;;;;;;4985944;28;20199;-62
2022/06/28 04:35:52;;;;;;;2.70;2.50;;;17.20;99.90;;;;;;4992509;28;20187;-62
2022/06/28 04:38:18;;;;;;;3.47;3.17;;;17.10;99.90;;;;;;4989552;28;20542;-62
2022/06/28 04:40:43;;;;;;;4.63;2.70;;;17.40;99.90;;;;;;4989806;28;20458;-62
2022/06/28 04:43:09;;;;;;;2.93;2.73;;;17.70;99.90;;;;;;4985678;28;20275;-62
2022/06/28 04:45:35;;;;;;;2.73;2.53;;;17.50;99.90;;;;;;4988474;28;20222;-62
2022/06/28 04:48:01;;;;;;;3.03;2.83;;;17.60;99.90;;;;;;4986006;28;20474;-62
2022/06/28 04:50:26;;;;;;;3.90;2.60;;;17.70;99.90;;;;;;4984689;28;20341;-62
2022/06/28 04:52:52;;;;;;;4.23;3.37;;;17.80;99.90;;;;;;4983617;28;20969;-62
2022/06/28 04:55:19;;;;;;;5.97;3.43;;;17.80;99.90;;;;;;4990245;28;20226;-62
2022/06/28 04:57:44;;;;;;;2.65;2.45;;;17.80;99.90;;;;;;4990417;28;20195;-62
2022/06/28 05:00:11;;;;;;;3.83;3.10;;;18.10;99.90;;;;;;4986837;28;20242;-62
2022/06/28 05:02:37;;;;;;;4.20;3.08;;;18.00;99.90;;;;;;4984865;28;20269;-62
2022/06/28 05:05:07;;;;;;;2.92;2.72;;;18.20;99.90;;;;;;4980401;28;20658;-62
2022/06/28 05:07:33;;;;;;;4.50;4.10;;;18.40;99.90;;;;;;4987425;28;20187;-63
2022/06/28 05:10:00;;;;;;;8.07;4.33;;;18.30;99.90;;;;;;4983435;28;20559;-62
2022/06/28 05:12:26;;;;;;;4.25;3.95;;;18.50;99.90;;;;;;4992269;28;20458;-63
2022/06/28 05:14:51;;;;;;;6.50;5.90;;;18.40;99.90;;;;;;4990644;28;20191;-62
2022/06/28 05:17:17;;;;;;;4.93;4.40;;;18.60;99.90;;;;;;4991041;28;20195;-62
2022/06/28 05:19:43;;;;;;;5.80;4.53;;;18.70;99.90;;;;;;4986496;28;20246;-62
2022/06/28 05:22:09;;;;;;;4.00;3.70;;;18.80;99.90;;;;;;4986269;28;20675;-62
2022/06/28 05:24:36;;;;;;;4.93;3.53;;;18.90;99.90;;;;;;4990469;28;20190;-62
2022/06/28 05:27:02;;;;;;;3.90;3.60;;;19.00;99.90;;;;;;4989828;28;20280;-63
2022/06/28 05:29:28;;;;;;;6.15;5.57;;;19.10;99.90;;;;;;4995513;28;20205;-62
2022/06/28 05:31:53;;;;;;;5.20;4.70;;;19.20;99.90;;;;;;4985046;28;20618;-62
2022/06/28 05:34:19;;;;;;;4.40;3.60;;;19.20;99.90;;;;;;4987184;28;20188;-63
2022/06/28 05:36:45;;;;;;;6.73;6.17;;;19.30;99.90;;;;;;4989036;28;20226;-62
2022/06/28 05:39:10;;;;;;;6.73;6.13;;;19.30;99.90;;;;;;4983879;28;20196;-63
2022/06/28 05:41:36;;;;;;;6.10;5.60;;;19.30;99.90;;;;;;4984694;28;20247;-62
2022/06/28 05:44:02;;;;;;;5.20;4.80;;;19.30;99.90;;;;;;4989973;28;20450;-63
2022/06/28 05:46:32;;;;;;;6.00;5.60;;;19.40;99.90;;;;;;4981682;28;20467;-63
2022/06/28 05:48:58;;;;;;;7.97;7.30;;;19.50;99.90;;;;;;4982813;28;20575;-62
2022/06/28 05:51:24;;;;;;;6.30;5.67;;;19.60;99.90;;;;;;4984937;28;20211;-63
2022/06/28 05:53:50;;;;;;;6.67;6.07;;;19.90;99.90;;;;;;4990479;28;20455;-63
2022/06/28 05:56:16;;;;;;;7.47;6.82;;;20.00;99.90;;;;;;4983398;28;20249;-64
2022/06/28 05:58:42;;;;;;;6.33;5.73;;;20.00;99.90;;;;;;4987448;28;20191;-63
2022/06/28 06:01:08;;;;;;;6.67;6.10;;;20.20;99.90;;;;;;4990263;28;20254;-63
2022/06/28 06:03:33;;;;;;;7.68;6.40;;;20.10;99.90;;;;;;4989903;28;20274;-63
2022/06/28 06:05:59;;;;;;;12.70;11.63;;;20.30;99.90;;;;;;4990647;28;20630;-63
2022/06/28 06:08:25;;;;;;;7.63;6.80;;;20.30;99.90;;;;;;4986214;28;20192;-63
2022/06/28 06:10:51;;;;;;;9.77;6.80;;;20.40;99.90;;;;;;4988234;28;20948;-63
2022/06/28 06:13:17;;;;;;;7.17;5.80;;;20.40;99.90;;;;;;4976963;28;20646;-67
2022/06/28 06:15:42;;;;;;;6.57;6.07;;;20.60;99.90;;;;;;4986211;28;20188;-67
2022/06/28 06:18:08;;;;;;;7.43;6.83;;;21.00;99.90;;;;;;4989975;28;20697;-71
2022/06/28 06:20:34;;;;;;;7.43;6.83;;;20.60;99.90;;;;;;4987245;28;20215;-67
2022/06/28 06:22:59;;;;;;;9.93;8.77;;;20.40;99.90;;;;;;4979329;28;20194;-67
2022/06/28 06:25:25;;;;;;;8.20;7.60;;;20.30;99.90;;;;;;4990699;28;20689;-71
2022/06/28 06:27:51;;;;;;;7.17;6.47;;;20.40;99.90;;;;;;4990781;28;20617;-72
2022/06/28 06:30:16;;;;;;;7.30;6.70;;;20.40;99.90;;;;;;4986218;28;20203;-71
2022/06/28 06:32:42;;;;;;;6.77;6.27;;;20.20;99.90;;;;;;4989056;28;20222;-69
2022/06/28 06:35:09;;;;;;;6.60;6.10;;;20.10;99.90;;;;;;4989587;28;20188;-68
2022/06/28 06:37:35;;;;;;;6.55;6.05;;;20.00;99.90;;;;;;4986199;28;20555;-70
2022/06/28 06:40:01;;;;;;;6.50;5.97;;;20.00;99.90;;;;;;4980437;28;20302;-69
2022/06/28 06:42:26;;;;;;;7.53;6.73;;;19.90;99.90;;;;;;4984544;28;20665;-69
2022/06/28 06:44:52;;;;;;;6.40;5.93;;;20.10;99.90;;;;;;4985507;28;20195;-69
2022/06/28 06:47:18;;;;;;;7.20;6.60;;;20.30;99.90;;;;;;4982972;28;20177;-70
2022/06/28 06:49:43;;;;;;;11.13;10.10;;;20.20;99.90;;;;;;4987868;28;20521;-71
2022/06/28 06:52:09;;;;;;;7.80;7.00;;;20.20;99.90;;;;;;4986017;28;20256;-71
2022/06/28 06:54:35;;;;;;;6.60;6.10;;;20.20;99.90;;;;;;4990330;28;20241;-73
2022/06/28 06:57:01;;;;;;;7.23;6.73;;;20.10;99.90;;;;;;4987295;28;20757;-75
2022/06/28 06:59:26;;;;;;;6.50;5.90;;;19.90;99.90;;;;;;4979833;28;20670;-70
2022/06/28 07:01:52;;;;;;;7.27;6.50;;;20.00;99.90;;;;;;4990114;28;20239;-69
2022/06/28 07:04:17;;;;;;;6.37;5.77;;;19.90;99.90;;;;;;4987381;28;20262;-67
2022/06/28 07:06:43;;;;;;;7.03;6.53;;;20.00;99.90;;;;;;4990522;28;20207;-68
2022/06/28 07:09:09;;;;;;;7.13;6.53;;;20.00;99.90;;;;;;4987730;28;20198;-68
2022/06/28 07:11:35;;;;;;;7.00;6.23;;;19.90;99.90;;;;;;4987143;28;20470;-68
2022/06/28 07:14:01;;;;;;;8.47;7.73;;;19.70;99.90;;;;;;4979626;28;20803;-70
2022/06/28 07:16:27;;;;;;;9.90;9.00;;;19.60;99.90;;;;;;4984246;28;20983;-64
2022/06/28 07:18:54;;;;;;;8.50;7.80;;;19.40;99.90;;;;;;4975764;28;20196;-65
2022/06/28 07:21:20;;;;;;;10.02;9.30;;;19.30;99.90;;;;;;4987995;28;20222;-65
2022/06/28 07:23:45;;;;;;;9.03;8.23;;;19.30;99.90;;;;;;4984203;28;20357;-65
2022/06/28 07:26:12;;;;;;;9.60;8.80;;;19.30;99.90;;;;;;4986743;28;20226;-68
2022/06/28 07:28:37;;;;;;;9.68;8.95;;;19.40;99.90;;;;;;4984157;28;20203;-68
2022/06/28 07:31:04;;;;;;;12.50;9.00;;;19.40;99.90;;;;;;4989859;28;20580;-68
2022/06/28 07:33:30;;;;;;;8.27;7.60;;;19.40;99.90;;;;;;4988656;28;20492;-70
2022/06/28 07:35:56;;;;;;;8.90;8.10;;;19.50;99.90;;;;;;4987597;28;20192;-71
2022/06/28 07:38:22;;;;;;;9.50;8.70;;;19.40;99.90;;;;;;4985016;28;20179;-71
2022/06/28 07:40:47;;;;;;;8.87;8.07;;;19.50;99.90;;;;;;4990397;28;20350;-68
2022/06/28 07:43:13;;;;;;;9.23;8.53;;;19.40;99.90;;;;;;4985544;28;20189;-68
2022/06/28 07:45:40;;;;;;;9.20;8.40;;;19.20;99.90;;;;;;4984785;28;20226;-67
2022/06/28 07:48:07;;;;;;;8.20;7.60;;;19.60;99.90;;;;;;4983933;28;20732;-66
2022/06/28 07:53:19;;;;;;;9.88;9.05;;;19.80;99.90;;;;;;4984983;28;20229;-70
2022/06/28 07:55:44;;;;;;;8.20;7.45;;;19.60;99.90;;;;;;4987707;28;20277;-66
2022/06/28 07:58:10;;;;;;;7.70;7.10;;;19.60;99.90;;;;;;4980433;28;20279;-65
2022/06/28 08:00:36;;;;;;;8.10;7.40;;;19.80;99.90;;;;;;4990393;28;20634;-66
2022/06/28 08:03:03;;;;;;;8.75;8.05;;;19.50;99.90;;;;;;4986943;28;20834;-64
2022/06/28 08:05:28;;;;;;;8.18;7.53;;;19.60;99.90;;;;;;4987988;28;20276;-65
2022/06/28 08:07:54;;;;;;;9.07;7.43;;;19.70;99.90;;;;;;4988946;28;20259;-66
2022/06/28 08:10:19;;;;;;;8.40;7.60;;;20.00;99.90;;;;;;4990197;28;20207;-61
2022/06/28 08:12:45;;;;;;;7.13;6.63;;;20.20;99.90;;;;;;4975142;28;20185;-72
2022/06/28 08:15:12;;;;;;;6.67;6.07;;;21.10;99.90;;;;;;4988228;28;20184;-74
2022/06/28 08:17:37;;;;;;;7.05;6.53;;;23.20;99.90;;;;;;4988824;28;20188;-74
2022/06/28 08:20:04;;;;;;;7.07;6.57;;;23.30;99.90;;;;;;4985044;28;20194;-73
2022/06/28 08:22:30;;;;;;;7.47;6.83;;;24.10;99.90;;;;;;4988558;28;20195;-75
2022/06/28 08:24:55;;;;;;;6.43;5.90;;;23.60;99.90;;;;;;4992920;28;20909;-75
2022/06/28 08:27:21;;;;;;;6.60;6.10;;;23.90;99.60;;;;;;4983433;28;20514;-74
2022/06/28 08:29:47;;;;;;;6.57;5.97;;;23.70;99.20;;;;;;4979235;28;20553;-77
2022/06/28 08:32:13;;;;;;;7.23;6.63;;;23.60;99.60;;;;;;4986695;28;20208;-72
2022/06/28 08:34:39;;;;;;;7.10;6.45;;;23.40;99.70;;;;;;4991529;28;20446;-73
2022/06/28 08:37:05;;;;;;;7.20;6.70;;;23.00;99.90;;;;;;4992768;28;20222;-76
2022/06/28 08:39:32;;;;;;;5.80;5.40;;;23.30;99.90;;;;;;4991557;28;20215;-77
2022/06/28 08:42:04;;;;;;;6.40;5.90;;;24.50;98.70;;;;;;4987738;28;20473;-75
2022/06/28 08:44:33;;;;;;;5.50;5.10;;;24.40;98.20;;;;;;4993101;28;20845;-77
2022/06/28 08:47:00;;;;;;;6.03;5.30;;;25.20;96.80;;;;;;4986591;28;20466;-76
2022/06/28 08:49:33;;;;;;;6.00;5.50;;;25.60;95.50;;;;;;4990522;28;20436;-76
2022/06/28 08:51:59;;;;;;;4.97;4.67;;;26.50;93.90;;;;;;4990743;28;20501;-76
2022/06/28 08:54:27;;;;;;;4.50;4.20;;;27.70;91.40;;;;;;4976154;28;20483;-75
2022/06/28 08:56:53;;;;;;;4.60;4.20;;;28.40;89.80;;;;;;4991784;28;20462;-73
2022/06/28 08:59:18;;;;;;;5.30;4.90;;;28.40;86.50;;;;;;4990221;28;20461;-72
2022/06/28 09:01:44;;;;;;;4.63;4.23;;;28.70;84.70;;;;;;4980819;28;20984;-70
2022/06/28 09:04:11;;;;;;;4.20;3.90;;;28.70;86.20;;;;;;4986727;28;20187;-68
2022/06/28 09:06:37;;;;;;;5.27;4.80;;;28.60;83.60;;;;;;4989915;28;20215;-68
2022/06/28 09:09:03;;;;;;;4.90;4.60;;;28.10;85.60;;;;;;4984128;28;20438;-68
2022/06/28 09:11:40;;;;;;;4.00;3.70;;;29.90;84.00;;;;;;4992132;28;20952;-68
2022/06/28 09:14:24;;;;;;;4.67;4.37;;;30.90;76.00;;;;;;4988751;28;20453;-68
2022/06/28 09:16:50;;;;;;;10.63;4.50;;;31.00;73.80;;;;;;4992133;28;20446;-69
2022/06/28 09:19:16;;;;;;;3.47;3.27;;;30.60;75.40;;;;;;4983780;28;20453;-68
2022/06/28 09:21:46;;;;;;;3.73;3.53;;;30.70;74.10;;;;;;4991450;28;20462;-69
2022/06/28 09:24:25;;;;;;;3.70;3.40;;;29.90;74.60;;;;;;4986079;28;20500;-69
2022/06/28 09:26:59;;;;;;;3.60;3.30;;;30.70;73.00;;;;;;4988736;28;20495;-67
2022/06/28 09:29:25;;;;;;;3.90;3.60;;;30.70;72.60;;;;;;4982110;28;20478;-69
2022/06/28 09:31:51;;;;;;;3.70;3.50;;;30.90;71.40;;;;;;4989642;28;20462;-70
2022/06/28 09:34:16;;;;;;;4.10;3.90;;;31.30;70.30;;;;;;4977519;28;20188;-70
2022/06/28 09:36:55;;;;;;;4.30;3.20;;;31.20;69.20;;;;;;4984758;28;20206;-73
2022/06/28 09:39:21;;;;;;;4.77;3.10;;;31.80;70.20;;;;;;4984965;28;20202;-70
2022/06/28 09:41:50;;;;;;;4.37;3.60;;;30.90;68.40;;;;;;4988059;28;20481;-73
2022/06/28 09:44:17;;;;;;;3.47;3.17;;;30.10;72.30;;;;;;4986326;28;20820;-67
2022/06/28 09:46:44;;;;;;;3.53;3.30;;;29.00;73.70;;;;;;4986956;28;20817;-72
2022/06/28 09:49:10;;;;;;;4.37;3.87;;;28.80;75.60;;;;;;4988974;28;20535;-71
2022/06/28 09:51:37;;;;;;;3.73;3.47;;;28.80;76.30;;;;;;4985404;28;20475;-71
2022/06/28 09:54:09;;;;;;;3.60;3.30;;;28.30;76.00;;;;;;4984143;28;20465;-71
2022/06/28 09:56:43;;;;;;;3.50;3.20;;;29.60;73.50;;;;;;4984755;28;20447;-71
2022/06/28 09:59:10;;;;;;;2.93;2.70;;;30.70;70.50;;;;;;4982382;28;20850;-71
2022/06/28 10:01:36;;;;;;;4.03;3.03;;;30.80;67.50;;;;;;4989837;28;20479;-71
2022/06/28 10:04:02;;;;;;;3.30;3.10;;;33.00;64.50;;;;;;4988603;28;20450;-71
2022/06/28 10:06:29;;;;;;;2.87;2.70;;;33.30;60.60;;;;;;4989876;28;20498;-72
2022/06/28 10:08:54;;;;;;;2.90;2.70;;;34.40;58.30;;;;;;4988734;28;20972;-71
2022/06/28 10:11:20;;;;;;;3.00;2.77;;;33.90;57.80;;;;;;4979596;28;20465;-72
2022/06/28 10:16:58;;;;;;;3.00;2.80;;;30.70;64.00;;;;;;4993099;28;20202;-78
2022/06/28 10:19:26;;;;;;;2.70;2.50;;;29.80;67.50;;;;;;4986655;28;20454;-66
2022/06/28 10:21:51;;;;;;;3.03;2.83;;;28.90;70.80;;;;;;4985417;28;20473;-66
2022/06/28 10:24:18;;;;;;;3.37;3.17;;;29.40;69.40;;;;;;4986864;28;20452;-66
2022/06/28 10:27:05;;;;;;;3.27;3.07;;;30.10;67.50;;;;;;4987225;28;20222;-66
2022/06/28 10:29:30;;;;;;;3.60;3.40;;;31.20;65.20;;;;;;4982873;28;20439;-71
2022/06/28 10:31:56;;;;;;;3.63;2.80;;;32.70;61.20;;;;;;4985877;28;20601;-71
2022/06/28 10:34:43;;;;;;;2.80;2.60;;;32.40;60.20;;;;;;4988278;28;20291;-71
2022/06/28 10:37:08;;;;;;;2.97;2.70;;;31.40;61.40;;;;;;4986306;28;20191;-71
2022/06/28 10:39:34;;;;;;;3.00;2.87;;;30.00;66.00;;;;;;4983661;28;20775;-71
2022/06/28 10:41:59;;;;;;;3.13;2.93;;;28.90;70.00;;;;;;4987030;28;20670;-71
2022/06/28 10:44:31;;;;;;;2.90;2.70;;;28.40;71.70;;;;;;4988951;28;20192;-70
2022/06/28 10:47:06;;;;;;;3.30;3.10;;;27.90;72.00;;;;;;4989032;28;20708;-70
2022/06/28 10:49:48;;;;;;;3.03;2.90;;;28.40;72.80;;;;;;4981357;28;20446;-70
2022/06/28 10:52:26;;;;;;;2.60;2.40;;;29.20;70.00;;;;;;4983531;28;20965;-70
2022/06/28 10:54:52;;;;;;;4.07;2.40;;;29.60;67.10;;;;;;4987617;28;20454;-70
2022/06/28 10:57:34;;;;;;;3.67;2.83;;;30.00;66.00;;;;;;4988869;28;20449;-70
2022/06/28 11:00:12;;;;;;;3.27;2.43;;;30.50;64.00;;;;;;4990478;28;20218;-70
2022/06/28 11:02:45;;;;;;;2.70;2.20;;;31.50;62.60;;;;;;4978076;28;20524;-71
2022/06/28 11:05:11;;;;;;;3.40;2.60;;;31.80;61.80;;;;;;4988759;28;20465;-72
2022/06/28 11:07:39;;;;;;;3.03;2.70;;;31.10;63.30;;;;;;4988257;28;20445;-78
2022/06/28 11:10:16;;;;;;;2.90;2.67;;;30.30;64.70;;;;;;4983191;28;20202;-76
2022/06/28 11:12:42;;;;;;;2.50;2.40;;;30.30;64.40;;;;;;4984800;28;20447;-74
2022/06/28 11:15:11;;;;;;;2.53;2.40;;;29.90;65.60;;;;;;4987865;28;20643;-74
2022/06/28 11:17:42;;;;;;;4.93;4.53;;;29.90;67.50;;;;;;4983056;28;20461;-77
2022/06/28 11:20:11;;;;;;;4.00;3.70;;;30.10;68.00;;;;;;4983644;28;20440;-76
2022/06/28 11:22:44;;;;;;;2.70;2.47;;;30.00;66.10;;;;;;4985421;28;20452;-74
2022/06/28 11:25:15;;;;;;;3.10;2.60;;;29.20;66.90;;;;;;4978066;28;20449;-74
2022/06/28 11:27:48;;;;;;;2.80;2.60;;;28.30;69.80;;;;;;4983006;28;20538;-76
2022/06/28 11:30:15;;;;;;;2.70;2.50;;;28.10;72.30;;;;;;4980340;28;20451;-75
2022/06/28 11:32:48;;;;;;;2.90;2.70;;;28.50;71.70;;;;;;4982245;28;20443;-73
2022/06/28 11:35:20;;;;;;;3.97;2.90;;;28.30;72.30;;;;;;4985235;28;20815;-72
2022/06/28 11:38:15;;;;;;;3.70;2.40;;;28.00;73.50;;;;;;4987972;28;21007;-76
2022/06/28 11:40:43;;;;;;;2.80;2.60;;;28.10;72.80;;;;;;4970056;28;21051;-70
2022/06/28 11:43:14;;;;;;;2.30;2.13;;;27.90;73.80;;;;;;4981679;28;20530;-62
2022/06/28 11:45:49;;;;;;;2.53;2.33;;;27.80;74.30;;;;;;4989230;28;20540;-62
2022/06/28 11:48:27;;;;;;;2.30;2.10;;;27.90;73.50;;;;;;4983498;28;20955;-62
2022/06/28 11:50:55;;;;;;;2.30;2.10;;;27.40;73.80;;;;;;4987451;28;20516;-62
2022/06/28 11:53:21;;;;;;;2.00;1.90;;;27.20;74.60;;;;;;4988396;28;20528;-63
2022/06/28 11:55:50;;;;;;;2.37;2.17;;;27.00;75.80;;;;;;4988598;28;20446;-64
2022/06/28 11:58:19;;;;;;;6.17;2.00;;;27.00;75.90;;;;;;4980063;28;20485;-64
2022/06/28 12:01:08;;;;;;;2.10;2.00;;;27.00;76.20;;;;;;4984016;28;20471;-64
2022/06/28 12:03:54;;;;;;;2.30;2.10;;;26.80;77.00;;;;;;4983992;28;20448;-64
2022/06/28 12:06:22;;;;;;;1.77;1.67;;;26.70;77.60;;;;;;4988633;28;20474;-64
2022/06/28 12:08:52;;;;;;;2.13;2.03;;;26.30;78.80;;;;;;4990040;28;20831;-64
2022/06/28 12:11:36;;;;;;;2.47;2.27;;;26.40;78.20;;;;;;4992157;28;20452;-65
2022/06/28 12:14:20;;;;;;;1.93;1.83;;;26.30;78.10;;;;;;4987777;28;20456;-67
2022/06/28 12:16:55;;;;;;;2.00;1.90;;;26.10;79.60;;;;;;4986516;28;20538;-67
2022/06/28 12:19:22;;;;;;;1.97;1.87;;;25.90;80.70;;;;;;4988937;28;20447;-67
2022/06/28 12:22:04;;;;;;;2.30;2.10;;;25.80;80.80;;;;;;4991614;28;20474;-67
2022/06/28 12:24:51;;;;;;;3.60;3.30;;;25.60;82.20;;;;;;4988361;28;20514;-66
2022/06/28 12:27:24;;;;;;;3.83;2.47;;;25.80;82.30;;;;;;4984369;28;20956;-66
2022/06/28 12:29:55;;;;;;;1.77;1.67;;;26.00;81.60;;;;;;4977075;28;20448;-66
2022/06/28 12:32:21;;;;;;;2.43;2.23;;;26.00;80.30;;;;;;4989231;28;20436;-66
2022/06/28 12:34:47;;;;;;;2.20;2.10;;;26.10;80.80;;;;;;4988937;28;20445;-66
2022/06/28 12:37:13;;;;;;;2.10;1.60;;;25.90;80.50;;;;;;4991239;28;20445;-66
2022/06/28 12:39:39;;;;;;;2.30;1.87;;;26.00;81.60;;;;;;4987322;28;20240;-65
2022/06/28 12:42:06;;;;;;;2.03;1.93;;;26.10;80.70;;;;;;4992616;28;20456;-63
2022/06/28 12:44:32;;;;;;;1.80;1.70;;;26.10;80.90;;;;;;4984854;28;20436;-63
2022/06/28 12:46:58;;;;;;;2.10;1.90;;;25.90;80.70;;;;;;4992297;28;20493;-63
2022/06/28 12:49:24;;;;;;;1.97;1.87;;;25.70;81.80;;;;;;4990883;28;20466;-65
2022/06/28 12:51:51;;;;;;;2.30;1.93;;;25.70;81.90;;;;;;4987480;28;20487;-65
2022/06/28 12:54:17;;;;;;;2.40;2.20;;;25.70;83.50;;;;;;4989867;28;20448;-67
2022/06/28 12:56:43;;;;;;;2.00;1.90;;;26.30;81.60;;;;;;4986032;28;20446;-66
2022/06/28 12:59:09;;;;;;;2.73;2.50;;;25.80;81.30;;;;;;4992708;28;20520;-67